Time;durP1;ratioP1;P1;durP2;ratioP2;P2;SDS_P1;SDS_P2;PMS_P1;PMS_P2;Temp;Humidity;BMP_temperature;BMP_pressure;BME280_temperature;BME280_humidity;BME280_pressure;Samples;Min_cycle;Max_cycle;Signal;HPM_P1;HPM_P2
2023/02/23 00:01:40;;;;;;;5.97;3.90;;;20.70;66.60;;;;;;4756535;29;86419;-78
2023/02/23 00:04:06;;;;;;;5.68;4.38;;;20.70;66.60;;;;;;4753461;29;86122;-78
2023/02/23 00:06:34;;;;;;;4.35;3.75;;;20.70;66.50;;;;;;4758278;29;87300;-78
2023/02/23 00:09:00;;;;;;;5.20;3.78;;;20.70;66.50;;;;;;4752722;29;85978;-78
2023/02/23 00:11:27;;;;;;;6.00;3.95;;;20.70;66.60;;;;;;4753369;29;85909;-78
2023/02/23 00:13:55;;;;;;;4.45;3.50;;;20.60;66.50;;;;;;4752198;29;86470;-78
2023/02/23 00:16:23;;;;;;;4.95;4.07;;;20.60;66.50;;;;;;4751443;29;87788;-78
2023/02/23 00:18:53;;;;;;;5.15;3.78;;;20.60;66.60;;;;;;4755827;29;86925;-78
2023/02/23 00:21:28;;;;;;;5.07;3.97;;;20.60;66.60;;;;;;4754556;29;86185;-79
2023/02/23 00:23:56;;;;;;;4.30;3.90;;;20.60;66.70;;;;;;4754591;29;85790;-77
2023/02/23 00:26:23;;;;;;;4.65;3.53;;;20.60;66.50;;;;;;4754747;29;87831;-78
2023/02/23 00:28:52;;;;;;;4.68;4.00;;;20.60;66.40;;;;;;4754116;29;86289;-78
2023/02/23 00:31:24;;;;;;;5.35;3.67;;;20.60;66.40;;;;;;4751204;29;86911;-78
2023/02/23 00:33:52;;;;;;;5.20;4.10;;;20.50;66.50;;;;;;4752483;29;86508;-78
2023/02/23 00:36:19;;;;;;;4.80;4.13;;;20.50;66.50;;;;;;4754833;29;89332;-78
2023/02/23 00:38:44;;;;;;;5.75;4.00;;;20.50;66.40;;;;;;4753285;29;86716;-79
2023/02/23 00:41:20;;;;;;;5.45;4.10;;;20.50;66.50;;;;;;4751213;29;85806;-78
2023/02/23 00:43:47;;;;;;;5.10;3.97;;;20.50;66.60;;;;;;4752050;29;86192;-78
2023/02/23 00:46:19;;;;;;;5.05;3.70;;;20.50;66.50;;;;;;4752604;29;87319;-77
2023/02/23 00:48:45;;;;;;;4.47;3.83;;;20.50;66.60;;;;;;4755622;29;86481;-78
2023/02/23 00:51:12;;;;;;;5.05;3.72;;;20.50;66.70;;;;;;4752294;29;86611;-78
2023/02/23 00:53:37;;;;;;;5.07;3.83;;;20.50;66.60;;;;;;4753326;29;86163;-78
2023/02/23 00:56:04;;;;;;;5.15;4.07;;;20.50;66.70;;;;;;4750909;29;86945;-78
2023/02/23 00:58:30;;;;;;;5.25;3.63;;;20.40;66.50;;;;;;4754253;29;86543;-78
2023/02/23 01:00:58;;;;;;;7.00;4.43;;;20.40;66.50;;;;;;4758058;29;85791;-78
2023/02/23 01:03:27;;;;;;;5.30;4.30;;;20.40;66.40;;;;;;4757210;29;86183;-78
2023/02/23 01:05:54;;;;;;;5.50;4.20;;;20.40;66.50;;;;;;4754018;29;86559;-78
2023/02/23 01:08:21;;;;;;;4.32;3.90;;;20.40;66.50;;;;;;4755635;29;86292;-78
2023/02/23 01:10:52;;;;;;;4.60;4.15;;;20.40;66.60;;;;;;4755778;29;85712;-78
2023/02/23 01:13:19;;;;;;;5.68;4.25;;;20.40;66.50;;;;;;4769457;29;87673;-78
2023/02/23 01:15:46;;;;;;;6.57;4.32;;;20.40;66.60;;;;;;4757859;29;86415;-78
2023/02/23 01:18:14;;;;;;;4.70;3.80;;;20.40;66.50;;;;;;4755819;29;91850;-79
2023/02/23 01:20:42;;;;;;;5.75;4.10;;;20.40;66.50;;;;;;4756488;29;85956;-78
2023/02/23 01:23:11;;;;;;;5.45;4.82;;;20.30;66.50;;;;;;4754791;29;86747;-78
2023/02/23 01:25:37;;;;;;;6.17;4.20;;;20.30;66.50;;;;;;4755879;29;87111;-78
2023/02/23 01:28:03;;;;;;;5.32;4.18;;;20.30;66.50;;;;;;4756418;29;86674;-78
2023/02/23 01:30:29;;;;;;;5.05;3.95;;;20.30;66.70;;;;;;4756208;29;86016;-78
2023/02/23 01:32:54;;;;;;;4.32;3.63;;;20.30;66.60;;;;;;4753779;29;86343;-78
2023/02/23 01:35:20;;;;;;;5.05;3.55;;;20.20;66.40;;;;;;4753298;29;87386;-78
2023/02/23 01:37:45;;;;;;;4.47;3.72;;;20.30;66.60;;;;;;4757122;29;86845;-78
2023/02/23 01:40:18;;;;;;;5.22;4.50;;;20.20;66.50;;;;;;4753303;29;86119;-78
2023/02/23 01:42:45;;;;;;;4.78;4.25;;;20.30;66.70;;;;;;4767403;29;86038;-78
2023/02/23 01:45:26;;;;;;;5.25;4.40;;;20.30;66.50;;;;;;4756422;29;87473;-78
2023/02/23 01:47:55;;;;;;;4.88;3.90;;;20.30;66.50;;;;;;4754158;29;86067;-78
2023/02/23 01:50:21;;;;;;;4.80;4.03;;;20.20;66.50;;;;;;4756696;29;86400;-78
2023/02/23 01:52:50;;;;;;;4.07;3.50;;;20.20;66.60;;;;;;4756111;29;85765;-78
2023/02/23 01:55:23;;;;;;;4.75;3.90;;;20.20;66.60;;;;;;4755132;29;86599;-78
2023/02/23 01:57:52;;;;;;;4.75;4.20;;;20.20;66.50;;;;;;4755391;29;86746;-78
2023/02/23 02:00:19;;;;;;;4.50;3.60;;;20.20;66.60;;;;;;4754598;29;85696;-78
2023/02/23 02:02:47;;;;;;;4.53;3.95;;;20.20;66.40;;;;;;4754387;29;86138;-78
2023/02/23 02:05:14;;;;;;;5.35;4.13;;;20.10;66.40;;;;;;4756948;29;86946;-78
2023/02/23 02:07:46;;;;;;;4.55;4.10;;;20.10;66.40;;;;;;4753049;29;86754;-77
2023/02/23 02:12:50;;;;;;;4.25;3.70;;;20.10;66.40;;;;;;4756721;29;85893;-78
2023/02/23 02:15:16;;;;;;;6.43;4.28;;;20.10;66.40;;;;;;4755191;29;91907;-78
2023/02/23 02:18:08;;;;;;;4.68;3.80;;;20.10;66.40;;;;;;4752479;29;86459;-78
2023/02/23 02:21:11;;;;;;;5.85;4.43;;;20.10;66.50;;;;;;4754503;29;86424;-78
2023/02/23 02:24:04;;;;;;;5.18;4.07;;;20.10;66.40;;;;;;4729496;29;85934;-78
2023/02/23 02:26:43;;;;;;;5.47;3.80;;;20.10;66.30;;;;;;4737985;29;86623;-78
2023/02/23 02:29:25;;;;;;;;;;;20.10;66.30;;;;;;4733378;29;86031;-78
2023/02/23 02:32:20;;;;;;;5.15;3.67;;;20.10;66.40;;;;;;4735024;29;86451;-78
2023/02/23 02:35:22;;;;;;;5.38;4.15;;;20.10;66.20;;;;;;4733403;29;86424;-78
2023/02/23 02:38:06;;;;;;;4.55;4.10;;;20.10;66.50;;;;;;4732046;29;93246;-78
2023/02/23 02:40:53;;;;;;;5.55;4.05;;;20.10;66.30;;;;;;4734262;29;86504;-78
2023/02/23 02:43:24;;;;;;;5.45;4.03;;;20.10;66.40;;;;;;4733776;29;85807;-78
2023/02/23 02:45:55;;;;;;;5.05;4.30;;;20.10;67.20;;;;;;4732416;29;85862;-78
2023/02/23 02:48:29;;;;;;;5.60;4.05;;;20.00;66.30;;;;;;4733284;29;87393;-78
2023/02/23 02:50:59;;;;;;;5.10;4.10;;;20.00;66.20;;;;;;4734364;29;86334;-78
2023/02/23 02:53:33;;;;;;;6.20;4.40;;;20.00;66.30;;;;;;4733120;29;86335;-78
2023/02/23 02:56:04;;;;;;;4.93;3.95;;;20.00;66.30;;;;;;4731907;29;86559;-77
2023/02/23 02:58:30;;;;;;;4.60;3.78;;;20.00;66.20;;;;;;4734456;29;87670;-78
2023/02/23 04:18:13;;;;;;;4.43;3.75;;;19.80;66.00;;;;;;4671241;30;86795;-78
2023/02/23 04:20:38;;;;;;;4.93;4.10;;;19.80;66.10;;;;;;4671188;30;86471;-79
2023/02/23 04:23:04;;;;;;;4.00;3.50;;;19.70;66.20;;;;;;4677230;29;86345;-78
2023/02/23 04:25:30;;;;;;;4.20;3.65;;;19.80;66.20;;;;;;4703216;29;86494;-79
2023/02/23 04:27:56;;;;;;;5.43;4.40;;;19.70;66.20;;;;;;4715409;29;86000;-78
2023/02/23 04:30:24;;;;;;;4.78;4.10;;;19.70;66.10;;;;;;4716642;29;85893;-78
2023/02/23 04:32:51;;;;;;;4.07;3.67;;;19.70;66.00;;;;;;4715340;29;87108;-78
2023/02/23 04:35:17;;;;;;;4.25;3.65;;;19.70;66.10;;;;;;4718214;29;86011;-78
2023/02/23 04:37:42;;;;;;;4.82;3.83;;;19.70;65.90;;;;;;4719862;29;85938;-78
2023/02/23 04:40:09;;;;;;;6.07;4.13;;;19.70;66.00;;;;;;4718745;29;88527;-78
2023/02/23 04:42:38;;;;;;;4.30;3.85;;;19.70;66.10;;;;;;4717985;29;86607;-78
2023/02/23 04:45:04;;;;;;;5.57;4.30;;;19.70;66.00;;;;;;4717776;29;94349;-78
2023/02/23 04:47:29;;;;;;;4.22;3.58;;;19.70;66.20;;;;;;4719640;29;86672;-78
2023/02/23 04:49:55;;;;;;;4.95;4.20;;;19.70;66.20;;;;;;4716786;29;86689;-78
2023/02/23 04:52:21;;;;;;;4.53;3.97;;;19.70;66.10;;;;;;4745086;29;86377;-78
2023/02/23 04:54:46;;;;;;;5.13;3.88;;;19.70;66.00;;;;;;4754606;29;86342;-78
2023/02/23 04:57:12;;;;;;;4.32;3.80;;;19.70;65.90;;;;;;4754679;29;86391;-78
2023/02/23 04:59:38;;;;;;;4.78;4.28;;;19.60;65.90;;;;;;4756023;29;87359;-78
2023/02/23 05:02:03;;;;;;;4.80;3.80;;;19.60;65.90;;;;;;4756969;29;86687;-78
2023/02/23 05:04:29;;;;;;;4.35;3.80;;;19.70;66.10;;;;;;4758824;29;86459;-78
2023/02/23 05:06:55;;;;;;;4.53;3.97;;;19.60;66.10;;;;;;4756928;29;85773;-78
2023/02/23 05:09:20;;;;;;;4.45;3.95;;;19.60;65.90;;;;;;4756212;29;87131;-78
2023/02/23 05:11:46;;;;;;;4.57;4.05;;;19.60;66.00;;;;;;4755244;29;87555;-78
2023/02/23 05:14:12;;;;;;;5.38;4.20;;;19.60;65.90;;;;;;4756462;29;85790;-78
2023/02/23 05:16:38;;;;;;;4.55;3.97;;;19.60;65.90;;;;;;4755352;29;85722;-78
2023/02/23 05:19:04;;;;;;;4.28;3.88;;;19.60;66.10;;;;;;4756508;29;87631;-78
2023/02/23 05:21:30;;;;;;;5.00;4.15;;;19.60;65.90;;;;;;4756332;29;86528;-78
2023/02/23 05:23:56;;;;;;;5.35;4.30;;;19.60;65.70;;;;;;4754272;29;86332;-78
2023/02/23 05:26:22;;;;;;;4.57;3.67;;;19.60;65.90;;;;;;4755110;29;86230;-78
2023/02/23 05:28:47;;;;;;;5.25;4.13;;;19.60;66.00;;;;;;4751295;29;86962;-79
2023/02/23 05:31:13;;;;;;;4.88;3.85;;;19.60;65.60;;;;;;4755563;29;86823;-79
2023/02/23 05:33:44;;;;;;;5.22;3.92;;;19.60;65.60;;;;;;4756091;29;86264;-79
2023/02/23 05:36:12;;;;;;;6.28;5.15;;;19.60;65.70;;;;;;4758831;29;86230;-79
2023/02/23 05:38:38;;;;;;;6.78;5.85;;;19.70;66.20;;;;;;4757021;29;87203;-78
2023/02/23 05:41:09;;;;;;;5.35;4.57;;;19.80;65.80;;;;;;4756744;29;86939;-78
2023/02/23 05:43:35;;;;;;;5.85;5.25;;;19.90;65.90;;;;;;4758851;29;85732;-78
2023/02/23 05:46:13;;;;;;;5.38;4.80;;;20.00;65.90;;;;;;4754280;29;85934;-79
2023/02/23 05:48:39;;;;;;;5.70;4.97;;;20.10;65.90;;;;;;4757124;29;87510;-77
2023/02/23 05:51:07;;;;;;;6.53;5.55;;;20.10;65.80;;;;;;4755898;29;87319;-77
2023/02/23 05:53:34;;;;;;;6.55;5.43;;;20.20;65.80;;;;;;4754362;29;86006;-78
2023/02/23 05:56:01;;;;;;;8.50;5.43;;;20.20;65.40;;;;;;4756992;29;86578;-77
2023/02/23 05:58:27;;;;;;;6.78;5.10;;;20.20;65.40;;;;;;4753994;29;86375;-78
2023/02/23 06:00:53;;;;;;;6.53;5.35;;;20.30;65.00;;;;;;4755672;29;86419;-78
2023/02/23 06:03:20;;;;;;;5.88;5.10;;;20.30;65.10;;;;;;4757286;29;86147;-78
2023/02/23 06:05:54;;;;;;;5.88;5.28;;;20.40;65.00;;;;;;4755651;29;86510;-78
2023/02/23 06:08:19;;;;;;;6.72;5.25;;;20.40;65.00;;;;;;4755347;29;87285;-79
2023/02/23 06:10:46;;;;;;;5.95;5.18;;;20.40;64.70;;;;;;4753250;29;86894;-78
2023/02/23 06:13:12;;;;;;;8.10;6.18;;;20.40;64.80;;;;;;4751080;29;85904;-78
2023/02/23 06:15:37;;;;;;;8.77;5.97;;;20.40;64.70;;;;;;4756872;29;86133;-79
2023/02/23 06:18:04;;;;;;;6.05;5.40;;;20.40;64.40;;;;;;4754719;29;86963;-78
2023/02/23 06:20:29;;;;;;;9.48;6.32;;;20.30;64.00;;;;;;4752048;29;86560;-78
2023/02/23 06:22:56;;;;;;;21.67;8.82;;;20.30;64.40;;;;;;4755426;29;85875;-79
2023/02/23 06:25:22;;;;;;;29.98;9.45;;;20.20;63.80;;;;;;4756046;29;85744;-79
2023/02/23 06:27:47;;;;;;;22.40;9.38;;;20.20;63.30;;;;;;4753312;29;86473;-78
2023/02/23 06:30:13;;;;;;;19.80;9.52;;;20.20;63.50;;;;;;4752873;29;86769;-79
2023/02/23 06:32:39;;;;;;;22.55;8.10;;;20.20;63.70;;;;;;4755648;29;86337;-78
2023/02/23 06:35:06;;;;;;;17.17;8.13;;;20.20;64.10;;;;;;4756242;29;86169;-79
2023/02/23 06:37:32;;;;;;;21.73;8.40;;;20.20;64.20;;;;;;4754541;29;86292;-79
2023/02/23 06:39:58;;;;;;;22.67;9.25;;;20.10;64.00;;;;;;4755613;29;85908;-79
2023/02/23 06:42:24;;;;;;;15.77;7.60;;;20.10;64.10;;;;;;4755777;29;86096;-79
2023/02/23 06:44:49;;;;;;;17.60;8.45;;;20.10;64.00;;;;;;4754968;29;86449;-79
2023/02/23 06:47:15;;;;;;;21.20;8.45;;;20.20;64.20;;;;;;4755570;29;86571;-79
2023/02/23 06:49:41;;;;;;;23.85;9.05;;;20.20;64.30;;;;;;4758156;29;86664;-78
2023/02/23 06:52:08;;;;;;;15.93;8.32;;;20.20;64.30;;;;;;4753739;29;86675;-79
2023/02/23 06:54:34;;;;;;;19.80;9.32;;;20.20;64.10;;;;;;4756229;29;86366;-80
2023/02/23 06:56:59;;;;;;;22.30;9.20;;;20.20;64.20;;;;;;4756284;29;85737;-83
2023/02/23 06:59:25;;;;;;;17.50;8.68;;;20.40;65.80;;;;;;4762282;29;86109;-82
2023/02/23 07:01:51;;;;;;;16.48;8.32;;;20.30;64.60;;;;;;4762659;29;86615;-83
2023/02/23 07:04:17;;;;;;;18.40;8.77;;;20.40;64.80;;;;;;4761320;29;85801;-83
2023/02/23 07:06:43;;;;;;;16.70;8.25;;;20.40;64.70;;;;;;4762721;29;88352;-83
2023/02/23 07:09:08;;;;;;;17.92;9.30;;;20.50;64.60;;;;;;4759553;29;86710;-83
2023/02/23 07:11:34;;;;;;;30.23;13.90;;;20.50;63.10;;;;;;4761196;29;86441;-82
2023/02/23 07:14:00;;;;;;;53.00;18.63;;;20.50;62.10;;;;;;4757094;29;86405;-83
2023/02/23 07:16:27;;;;;;;90.60;27.83;;;20.50;61.70;;;;;;4760182;29;85990;-84
2023/02/23 07:18:54;;;;;;;69.18;24.52;;;20.50;61.40;;;;;;4762460;29;86963;-84
2023/02/23 07:21:20;;;;;;;93.65;30.42;;;20.50;59.70;;;;;;4763663;29;86096;-89
2023/02/23 07:23:49;;;;;;;103.45;32.92;;;20.60;61.60;;;;;;4761115;29;85670;-86
2023/02/23 07:26:15;;;;;;;;;;;20.70;61.40;;;;;;4759222;29;90981;-88
2023/02/23 07:28:42;;;;;;;83.90;27.75;;;20.70;61.60;;;;;;4761306;29;89728;-87
2023/02/23 07:34:36;;;;;;;86.30;26.08;;;20.50;62.50;;;;;;4759882;29;86180;-88
2023/02/23 07:37:01;;;;;;;67.78;24.85;;;20.50;62.50;;;;;;4760479;29;87448;-88
2023/02/23 07:39:27;;;;;;;67.38;23.77;;;20.50;62.60;;;;;;4759526;29;86837;-87
2023/02/23 07:41:57;;;;;;;84.90;25.10;;;20.50;62.70;;;;;;4760780;29;86254;-88
2023/02/23 07:44:25;;;;;;;85.82;26.25;;;20.50;63.90;;;;;;4760220;29;86061;-89
2023/02/23 07:46:51;;;;;;;84.13;26.92;;;20.50;63.50;;;;;;4726242;29;87401;-86
2023/02/23 07:49:17;;;;;;;75.95;26.38;;;20.50;64.30;;;;;;4759971;29;86830;-90
2023/02/23 07:51:42;;;;;;;72.38;25.55;;;20.60;64.30;;;;;;4761246;29;85794;-87
2023/02/23 07:54:08;;;;;;;80.07;25.95;;;20.70;64.30;;;;;;4759794;29;86495;-87
2023/02/23 08:06:40;;;;;;;64.40;22.25;;;21.00;64.00;;;;;;4746182;29;87073;-86
2023/02/23 08:09:06;;;;;;;62.10;23.02;;;21.20;64.30;;;;;;4741618;29;87542;-87
2023/02/23 08:11:31;;;;;;;53.42;21.23;;;21.20;64.50;;;;;;4742570;29;86000;-90
2023/02/23 08:14:09;;;;;;;56.78;21.33;;;21.30;64.50;;;;;;4741593;29;86184;-89
2023/02/23 08:16:35;;;;;;;54.67;20.58;;;21.30;64.60;;;;;;4747084;29;85866;-89
2023/02/23 08:19:01;;;;;;;53.70;20.17;;;21.30;65.20;;;;;;4734366;29;87340;-88
2023/02/23 08:21:28;;;;;;;52.10;20.65;;;21.30;65.00;;;;;;4755423;29;85984;-90
2023/02/23 08:23:54;;;;;;;62.88;22.45;;;21.30;64.50;;;;;;4748103;29;87194;-88
2023/02/23 08:26:23;;;;;;;53.35;21.67;;;21.30;64.70;;;;;;4742823;29;85926;-87
2023/02/23 08:28:48;;;;;;;57.95;20.95;;;21.30;65.30;;;;;;4741996;29;89252;-89
2023/02/23 08:31:17;;;;;;;54.28;20.45;;;21.30;65.60;;;;;;4742090;29;86786;-89
2023/02/23 08:33:42;;;;;;;51.60;20.73;;;21.20;65.70;;;;;;4741613;29;87690;-89
2023/02/23 08:36:09;;;;;;;51.47;21.25;;;21.20;65.80;;;;;;4742712;29;86178;-88
2023/02/23 08:38:37;;;;;;;53.30;19.00;;;21.30;65.80;;;;;;4742575;29;87049;-88
2023/02/23 08:41:04;;;;;;;53.22;20.13;;;21.30;65.90;;;;;;4743190;29;86009;-90
2023/02/23 08:43:57;;;;;;;61.15;20.58;;;21.30;66.10;;;;;;4736257;29;86175;-91
2023/02/23 08:46:23;;;;;;;52.08;18.48;;;21.30;66.60;;;;;;4699972;29;85862;-90
2023/02/23 08:48:49;;;;;;;48.38;20.25;;;21.40;66.40;;;;;;4714847;29;87637;-86
2023/02/23 08:51:15;;;;;;;50.60;19.88;;;21.50;66.60;;;;;;4713276;29;87741;-85
2023/02/23 08:53:40;;;;;;;48.28;18.27;;;21.50;66.80;;;;;;4690579;29;86221;-84
2023/02/23 08:56:07;;;;;;;48.80;18.58;;;21.50;66.30;;;;;;4711216;29;87186;-85
2023/02/23 08:58:34;;;;;;;48.42;17.67;;;21.50;66.20;;;;;;4711143;29;88119;-85
2023/02/23 09:01:01;;;;;;;47.60;18.70;;;21.40;66.70;;;;;;4711801;29;86354;-85
2023/02/23 09:03:29;;;;;;;45.17;17.35;;;21.40;66.70;;;;;;4712260;29;86315;-85
2023/02/23 09:05:57;;;;;;;40.75;16.55;;;21.40;66.60;;;;;;4712322;29;85933;-84
2023/02/23 09:08:23;;;;;;;45.00;17.92;;;21.30;66.80;;;;;;4712530;29;86275;-88
2023/02/23 09:10:49;;;;;;;44.33;17.33;;;21.30;66.90;;;;;;4691446;29;88632;-88
2023/02/23 09:13:15;;;;;;;42.30;17.58;;;21.30;67.10;;;;;;4703963;29;86309;-85
2023/02/23 09:15:48;;;;;;;39.97;16.90;;;21.30;67.10;;;;;;4702804;29;86219;-85
2023/02/23 09:18:16;;;;;;;46.50;17.63;;;21.30;67.20;;;;;;4703767;29;94316;-85
2023/02/23 09:20:43;;;;;;;39.90;16.73;;;21.30;66.90;;;;;;4705194;29;86901;-84
2023/02/23 09:23:09;;;;;;;37.50;17.50;;;21.30;66.90;;;;;;4718267;29;85868;-86
2023/02/23 09:25:42;;;;;;;38.40;16.50;;;21.30;66.00;;;;;;4732351;29;86329;-86
2023/02/23 09:28:11;;;;;;;45.22;16.52;;;21.30;65.00;;;;;;4732847;29;86881;-85
2023/02/23 09:30:37;;;;;;;40.60;17.15;;;21.30;64.70;;;;;;4733985;29;87651;-86
2023/02/23 09:33:18;;;;;;;33.85;17.17;;;21.40;64.60;;;;;;4722698;29;86310;-87
2023/02/23 09:35:43;;;;;;;32.42;14.60;;;21.40;64.60;;;;;;4724725;29;86281;-85
2023/02/23 09:38:09;;;;;;;37.53;16.52;;;21.50;65.10;;;;;;4723454;29;86634;-80
2023/02/23 09:40:48;;;;;;;39.28;16.40;;;21.50;65.00;;;;;;4722968;29;86914;-83
2023/02/23 09:43:35;;;;;;;;;;;21.50;64.10;;;;;;4724735;29;85912;-79
2023/02/23 09:46:22;;;;;;;36.88;15.70;;;21.50;64.70;;;;;;4691272;29;86374;-82
2023/02/23 09:48:48;;;;;;;34.67;15.05;;;21.50;65.30;;;;;;4706213;29;88150;-82
2023/02/23 09:51:19;;;;;;;34.63;14.13;;;21.40;65.60;;;;;;4702167;29;89252;-82
2023/02/23 09:53:50;;;;;;;34.35;14.38;;;21.40;66.40;;;;;;4704581;29;86322;-82
2023/02/23 09:56:39;;;;;;;30.42;13.65;;;21.40;66.60;;;;;;4705897;29;85853;-82
2023/02/23 09:59:09;;;;;;;30.58;14.98;;;21.40;66.70;;;;;;4706566;29;87271;-83
2023/02/23 10:02:14;;;;;;;35.47;15.57;;;21.40;65.10;;;;;;4707496;29;87399;-83
2023/02/23 10:04:46;;;;;;;33.50;15.00;;;21.50;65.30;;;;;;4705636;29;85716;-83
2023/02/23 10:07:19;;;;;;;27.38;14.10;;;21.50;65.30;;;;;;4706732;29;86413;-83
2023/02/23 10:10:03;;;;;;;28.08;13.68;;;21.50;63.60;;;;;;4708909;29;87360;-83
2023/02/23 10:12:58;;;;;;;25.33;12.32;;;21.60;64.50;;;;;;4724262;29;91164;-81
2023/02/23 10:15:48;;;;;;;31.73;13.57;;;21.60;64.90;;;;;;4722869;29;88274;-82
2023/02/23 10:18:39;;;;;;;23.25;12.70;;;21.70;65.20;;;;;;4724595;29;88366;-81
2023/02/23 10:21:25;;;;;;;31.02;14.25;;;21.70;65.10;;;;;;4723230;29;87002;-81
2023/02/23 10:23:50;;;;;;;33.83;13.40;;;21.70;65.20;;;;;;4723857;29;86315;-81
2023/02/23 10:26:25;;;;;;;26.48;12.50;;;21.80;65.10;;;;;;4726127;29;85739;-81
2023/02/23 10:28:54;;;;;;;28.50;13.25;;;21.80;64.40;;;;;;4725282;29;86324;-81
2023/02/23 10:31:36;;;;;;;26.63;12.85;;;21.80;64.10;;;;;;4726218;29;87458;-81
2023/02/23 10:34:13;;;;;;;24.52;13.52;;;21.80;64.10;;;;;;4724503;29;86989;-81
2023/02/23 10:36:42;;;;;;;22.85;12.68;;;21.80;64.20;;;;;;4726435;29;86364;-81
2023/02/23 10:39:20;;;;;;;25.20;13.13;;;21.80;64.10;;;;;;4724538;29;86029;-81
2023/02/23 10:41:46;;;;;;;27.20;12.60;;;21.80;64.20;;;;;;4725416;29;87254;-80
2023/02/23 10:44:21;;;;;;;27.23;13.20;;;21.70;64.20;;;;;;4724195;29;86315;-81
2023/02/23 10:46:53;;;;;;;27.45;12.88;;;21.80;64.10;;;;;;4734401;29;86505;-81
2023/02/23 10:49:21;;;;;;;26.88;12.70;;;21.70;63.60;;;;;;4744131;29;86140;-82
2023/02/23 10:51:48;;;;;;;24.60;12.45;;;21.70;63.50;;;;;;4743532;29;87448;-82
2023/02/23 10:54:43;;;;;;;37.38;11.93;;;21.60;63.90;;;;;;4743645;29;87099;-82
2023/02/23 11:03:52;;;;;;;21.80;11.15;;;21.60;63.90;;;;;;4741886;29;89494;-80
2023/02/23 11:06:33;;;;;;;22.55;11.45;;;21.60;64.20;;;;;;4743832;29;86090;-81
2023/02/23 11:09:26;;;;;;;22.25;11.00;;;21.60;64.70;;;;;;4742554;29;86419;-81
2023/02/23 11:12:23;;;;;;;22.13;11.70;;;21.60;64.90;;;;;;4742346;29;86178;-81
2023/02/23 11:14:55;;;;;;;20.83;11.68;;;21.60;65.00;;;;;;4741791;29;87874;-81
2023/02/23 11:17:35;;;;;;;24.88;11.10;;;21.60;64.90;;;;;;4743157;29;86811;-81
2023/02/23 11:20:02;;;;;;;19.58;9.35;;;21.60;65.10;;;;;;4742611;29;86230;-81
2023/02/23 11:22:32;;;;;;;24.52;11.40;;;21.70;63.80;;;;;;4743772;29;86201;-81
2023/02/23 11:25:12;;;;;;;22.45;11.80;;;21.60;64.30;;;;;;4755506;29;89886;-80
2023/02/23 11:27:38;;;;;;;21.15;10.63;;;21.60;64.30;;;;;;4744074;29;86878;-81
2023/02/23 11:30:05;;;;;;;26.20;10.45;;;21.60;64.50;;;;;;4743433;29;85702;-81
2023/02/23 11:32:41;;;;;;;20.90;10.57;;;21.70;64.50;;;;;;4742601;29;85876;-81
2023/02/23 11:39:17;;;;;;;18.63;10.70;;;21.70;64.60;;;;;;4741169;29;86207;-81
2023/02/23 11:41:42;;;;;;;20.75;10.73;;;21.70;64.60;;;;;;4738293;29;86206;-81
2023/02/23 11:44:23;;;;;;;22.13;10.85;;;21.70;65.40;;;;;;4751707;29;86381;-81
2023/02/23 11:46:50;;;;;;;19.00;9.45;;;21.60;65.10;;;;;;4737642;29;86609;-81
2023/02/23 11:49:37;;;;;;;17.60;10.13;;;21.60;65.20;;;;;;4731519;29;90103;-81
2023/02/23 11:52:21;;;;;;;17.92;10.73;;;21.60;65.30;;;;;;4756440;29;86121;-81
2023/02/23 11:55:03;;;;;;;20.17;10.05;;;21.60;64.80;;;;;;4742675;29;85837;-81
2023/02/23 11:57:32;;;;;;;26.58;11.43;;;21.60;64.30;;;;;;4748411;29;94354;-82
2023/02/23 12:00:00;;;;;;;15.65;9.57;;;21.70;64.20;;;;;;4742656;29;86409;-85
2023/02/23 12:02:31;;;;;;;20.20;11.32;;;21.70;64.00;;;;;;4743142;29;85948;-85
2023/02/23 12:05:29;;;;;;;21.90;13.27;;;21.60;63.00;;;;;;4742145;29;86172;-86
2023/02/23 12:08:14;;;;;;;25.83;13.30;;;21.50;60.20;;;;;;4743309;29;85932;-85
2023/02/23 12:10:41;;;;;;;23.40;14.65;;;21.50;60.00;;;;;;4744436;29;86572;-86
2023/02/23 12:13:31;;;;;;;20.52;13.30;;;21.40;59.00;;;;;;4742173;29;87052;-85
2023/02/23 12:16:11;;;;;;;21.30;13.15;;;21.50;59.90;;;;;;4742274;29;86071;-84
2023/02/23 12:18:46;;;;;;;21.17;12.73;;;21.50;61.30;;;;;;4741172;29;87392;-85
2023/02/23 12:21:25;;;;;;;20.15;12.32;;;21.50;61.90;;;;;;4741597;29;86873;-84
2023/02/23 12:24:01;;;;;;;21.75;12.25;;;21.50;61.50;;;;;;4740537;29;85889;-87
2023/02/23 12:26:29;;;;;;;20.10;12.50;;;21.60;61.60;;;;;;4753517;29;86294;-86
2023/02/23 12:29:24;;;;;;;16.90;11.63;;;21.60;60.20;;;;;;4742307;29;88012;-86
2023/02/23 12:35:20;;;;;;;19.30;11.43;;;21.60;61.00;;;;;;4741711;29;86350;-86
2023/02/23 12:37:51;;;;;;;18.35;11.25;;;21.80;61.00;;;;;;4755156;29;86264;-86
2023/02/23 12:40:28;;;;;;;16.42;11.27;;;21.80;60.70;;;;;;4740961;29;87201;-86
2023/02/23 12:43:12;;;;;;;16.02;10.52;;;21.80;61.10;;;;;;4741574;29;87065;-86
2023/02/23 12:45:55;;;;;;;16.33;9.80;;;21.80;61.20;;;;;;4742926;29;86267;-86
2023/02/23 12:48:38;;;;;;;14.57;9.30;;;21.80;61.40;;;;;;4740954;29;88119;-85
2023/02/23 12:51:26;;;;;;;16.33;9.02;;;21.80;61.60;;;;;;4755219;29;90642;-86
2023/02/23 12:53:52;;;;;;;16.98;10.70;;;21.80;61.00;;;;;;4742431;29;86340;-86
2023/02/23 12:56:43;;;;;;;18.73;10.90;;;21.80;60.90;;;;;;4744306;29;85649;-86
2023/02/23 12:59:45;;;;;;;13.23;9.82;;;21.80;61.60;;;;;;4744937;29;86111;-85
2023/02/23 13:03:04;;;;;;;12.02;8.55;;;21.80;61.40;;;;;;4743838;29;87519;-83
2023/02/23 13:05:33;;;;;;;19.90;8.52;;;21.70;61.20;;;;;;4699897;29;89909;-84
2023/02/23 13:08:25;;;;;;;16.92;10.23;;;21.50;60.50;;;;;;4715801;29;85742;-85
2023/02/23 13:11:05;;;;;;;15.50;9.60;;;21.50;60.80;;;;;;4656668;30;86380;-85
2023/02/23 13:13:40;;;;;;;15.02;8.77;;;21.60;60.50;;;;;;4663148;30;88136;-84
2023/02/23 13:16:16;;;;;;;13.77;9.18;;;21.50;61.30;;;;;;4662979;30;86910;-84
2023/02/23 13:18:51;;;;;;;13.68;8.45;;;21.60;61.20;;;;;;4664448;30;86313;-84
2023/02/23 13:21:25;;;;;;;12.60;8.68;;;21.60;61.10;;;;;;4663978;30;85895;-85
2023/02/23 13:23:53;;;;;;;15.32;9.65;;;21.60;61.20;;;;;;4662532;30;86877;-84
2023/02/23 13:26:40;;;;;;;12.45;8.52;;;21.60;61.70;;;;;;4663296;30;86915;-84
2023/02/23 13:29:38;;;;;;;14.80;8.25;;;21.70;61.40;;;;;;4654895;30;85965;-84
2023/02/23 13:32:13;;;;;;;13.57;9.23;;;21.70;61.80;;;;;;4640825;30;93367;-85
2023/02/23 13:37:07;;;;;;;20.55;10.90;;;21.80;61.20;;;;;;4627690;30;87806;-86
2023/02/23 13:39:53;;;;;;;20.92;9.63;;;21.80;60.90;;;;;;4628478;30;85998;-85
2023/02/23 13:42:27;;;;;;;22.23;9.95;;;21.90;61.50;;;;;;4662178;30;88378;-86
2023/02/23 13:45:22;;;;;;;24.13;9.75;;;21.90;61.20;;;;;;4663307;30;87660;-85
2023/02/23 13:48:11;;;;;;;21.92;9.20;;;22.00;61.50;;;;;;4665731;30;86828;-86
2023/02/23 13:50:58;;;;;;;21.88;10.30;;;22.00;61.70;;;;;;4670936;30;85843;-85
2023/02/23 13:53:40;;;;;;;21.65;9.48;;;22.10;61.70;;;;;;4681451;30;86460;-85
2023/02/23 13:56:16;;;;;;;18.98;9.50;;;22.10;62.10;;;;;;4681538;30;90093;-85
2023/02/23 13:58:56;;;;;;;18.42;9.70;;;22.10;62.60;;;;;;4688749;30;86023;-85
2023/02/23 14:01:30;;;;;;;22.65;11.88;;;22.10;64.30;;;;;;4689584;30;86040;-84
2023/02/23 14:04:00;;;;;;;21.83;12.48;;;22.10;62.60;;;;;;4688404;30;85608;-85
2023/02/23 14:06:28;;;;;;;18.83;10.50;;;22.10;62.70;;;;;;4689838;30;86355;-86
2023/02/23 14:09:20;;;;;;;25.87;12.40;;;22.10;63.00;;;;;;4732886;29;86817;-85
2023/02/23 14:11:47;;;;;;;18.95;9.35;;;22.20;63.60;;;;;;4728551;29;86523;-85
2023/02/23 14:17:36;;;;;;;19.60;9.73;;;22.20;63.80;;;;;;4731575;29;86173;-86
2023/02/23 14:20:10;;;;;;;20.40;9.70;;;22.20;64.10;;;;;;4731858;29;86464;-86
2023/02/23 14:22:56;;;;;;;22.52;10.50;;;22.20;64.40;;;;;;4733127;29;86310;-82
2023/02/23 14:25:34;;;;;;;20.63;9.82;;;22.30;64.30;;;;;;4730738;29;85969;-82
2023/02/23 14:28:05;;;;;;;21.67;10.27;;;22.30;64.50;;;;;;4731457;29;87524;-83
2023/02/23 14:30:49;;;;;;;17.52;10.55;;;22.20;64.70;;;;;;4694788;30;86397;-83
2023/02/23 14:33:44;;;;;;;16.63;9.55;;;22.20;64.50;;;;;;4675237;30;89626;-82
2023/02/23 14:39:34;;;;;;;16.80;10.88;;;22.20;64.50;;;;;;4694739;29;90578;-82
2023/02/23 14:42:05;;;;;;;22.77;12.30;;;22.10;62.70;;;;;;4695748;29;87506;-82
2023/02/23 14:44:41;;;;;;;16.95;11.65;;;22.10;61.10;;;;;;4696886;30;86369;-82
2023/02/23 14:47:09;;;;;;;21.85;10.77;;;22.10;60.90;;;;;;4695567;30;86728;-82
2023/02/23 14:49:39;;;;;;;17.92;12.00;;;22.00;62.40;;;;;;4717374;29;86134;-81
2023/02/23 14:52:23;;;;;;;33.20;15.60;;;21.90;61.60;;;;;;4722519;29;86838;-81
2023/02/23 14:54:50;;;;;;;26.13;16.50;;;21.80;59.40;;;;;;4724051;29;86513;-81
2023/02/23 14:57:23;;;;;;;29.55;16.25;;;21.70;59.20;;;;;;4715720;29;86785;-81
2023/02/23 15:00:21;;;;;;;22.15;14.68;;;21.80;59.70;;;;;;4724609;29;87674;-81